MST,Max TemperatureF,Mean TemperatureF,Min TemperatureF,Max Dew PointF,MeanDew PointF,Min DewpointF,Max Humidity, Mean Humidity, Min Humidity, Max Sea Level PressureIn, Mean Sea Level PressureIn, Min Sea Level PressureIn, Max VisibilityMiles, Mean VisibilityMiles, Min VisibilityMiles, Max Wind SpeedMPH, Mean Wind SpeedMPH, Max Gust SpeedMPH,PrecipitationIn, CloudCover, Events, WindDirDegrees
2013-11-1,51,39,27,31,25,22,76,56,36,30.22,30.07,29.83,10,10,10,22,9,25,0.00,4,,352
2013-11-2,69,48,26,30,22,10,75,46,16,30.21,29.98,29.61,10,10,10,22,8,45,0.00,1,,182
2013-11-3,67,50,33,28,21,8,75,44,13,29.78,29.56,29.40,10,10,10,29,10,38,T,6,,46
2013-11-4,43,33,23,30,21,16,92,63,34,30.02,29.92,29.76,10,10,3,20,11,26,0.03,6,Snow,122
2013-11-5,43,32,20,26,15,8,85,55,24,30.20,30.04,29.87,10,10,10,23,13,30,0.00,5,,6
2013-11-6,53,36,19,17,12,4,54,37,20,30.33,30.22,30.13,10,10,10,22,12,28,0.00,3,,241
2013-11-7,61,42,22,25,18,15,68,44,20,30.40,30.21,29.91,10,10,10,17,8,18,0.00,3,,174
2013-11-8,65,50,34,25,20,14,48,33,18,29.93,29.80,29.72,10,10,10,23,11,32,0.00,4,,155
2013-11-9,65,49,32,31,25,19,70,45,19,30.20,30.09,29.95,10,10,10,15,9,17,0.00,4,,240
2013-11-10,68,49,30,29,23,15,78,46,14,30.22,30.14,30.06,10,10,10,15,6,16,0.00,3,,192
2013-11-11,66,47,28,30,25,18,92,54,16,30.63,30.34,30.08,10,6,1,26,10,30,0.00,5,,79
2013-11-12,61,45,28,31,26,22,92,59,25,30.65,30.51,30.31,10,9,3,21,10,24,0.00,2,,211
2013-11-13,71,53,35,24,14,1,64,36,7,30.28,30.08,29.87,10,10,9,18,9,24,0.00,4,,225
2013-11-14,57,48,39,33,28,17,62,46,30,30.02,29.86,29.68,10,10,10,21,9,25,0.00,5,,140
2013-11-15,64,49,33,28,19,11,69,42,14,29.65,29.50,29.37,10,10,9,24,9,30,0.00,4,,234
2013-11-16,61,44,26,29,21,12,70,43,15,29.43,29.32,29.22,10,10,10,30,12,37,T,5,Rain,248
2013-11-17,53,40,27,23,19,14,81,52,22,30.03,29.80,29.49,10,10,10,25,12,30,T,2,,135
2013-11-18,64,44,23,18,13,8,74,43,12,30.13,30.03,29.93,10,10,10,20,9,24,0.00,2,,195
2013-11-19,60,45,29,25,19,14,53,36,19,29.90,29.74,29.66,10,10,10,16,9,20,0.00,5,,236
2013-11-20,59,42,25,26,24,22,72,48,24,30.00,29.77,29.68,10,10,2,31,7,38,T,6,Snow,116
2013-11-21,25,19,12,23,12,6,92,83,73,30.72,30.32,30.02,10,4,0,21,10,25,0.23,8,Fog-Snow,16
2013-11-22,40,28,15,19,14,7,74,55,36,30.68,30.61,30.52,10,10,10,13,6,15,T,8,,185
2013-11-23,35,28,21,25,18,6,81,59,36,30.63,30.52,30.33,10,10,2,17,9,21,T,7,Snow,166
2013-11-24,36,29,22,24,21,16,92,77,61,30.30,30.11,30.00,10,7,1,21,7,25,0.00,6,Fog,282
2013-11-25,38,34,29,30,24,17,78,63,47,30.33,30.23,30.02,10,8,1,22,8,26,0.01,6,Snow,301
2013-11-26,48,38,28,25,22,18,85,58,31,30.41,30.33,30.22,10,10,10,15,8,18,0.00,3,,199
2013-11-27,65,48,30,22,18,14,75,44,13,30.18,30.07,29.94,10,10,10,20,10,25,0.00,2,,190
2013-11-28,51,38,24,28,24,19,81,60,39,30.22,30.14,30.07,10,10,10,14,7,16,0.00,4,,253
2013-11-29,62,46,29,24,20,16,78,47,16,30.12,30.07,30.00,10,10,10,15,8,20,0.00,2,,221
2013-11-30,60,46,32,18,14,10,56,35,14,30.14,30.09,30.03,10,10,10,15,8,18,0.00,1,,223